sensor_id;sensor_type;location;lat;lon;timestamp;temperature;humidity
61004;DHT22;46889;37.310;13.582;2022-12-19T00:00:13;13.20;99.90
61004;DHT22;46889;37.310;13.582;2022-12-19T00:02:40;13.20;99.90
61004;DHT22;46889;37.310;13.582;2022-12-19T00:05:06;13.20;99.90
61004;DHT22;46889;37.310;13.582;2022-12-19T00:07:33;13.30;99.90
61004;DHT22;46889;37.310;13.582;2022-12-19T00:09:59;13.30;99.90
61004;DHT22;46889;37.310;13.582;2022-12-19T00:12:28;13.30;99.90
61004;DHT22;46889;37.310;13.582;2022-12-19T00:14:54;13.30;99.90
61004;DHT22;46889;37.310;13.582;2022-12-19T00:17:20;13.30;99.90
61004;DHT22;46889;37.310;13.582;2022-12-19T00:19:55;13.30;99.90
61004;DHT22;46889;37.310;13.582;2022-12-19T00:22:21;13.40;99.90
61004;DHT22;46889;37.310;13.582;2022-12-19T00:24:56;13.40;99.90
61004;DHT22;46889;37.310;13.582;2022-12-19T00:27:25;13.30;99.90
61004;DHT22;46889;37.310;13.582;2022-12-19T00:29:51;13.30;99.90
61004;DHT22;46889;37.310;13.582;2022-12-19T00:32:18;13.20;99.90
61004;DHT22;46889;37.310;13.582;2022-12-19T00:34:46;13.20;99.90
61004;DHT22;46889;37.310;13.582;2022-12-19T00:37:36;13.20;99.90
61004;DHT22;46889;37.310;13.582;2022-12-19T00:40:03;13.10;99.90
61004;DHT22;46889;37.310;13.582;2022-12-19T00:42:29;13.10;99.90
61004;DHT22;46889;37.310;13.582;2022-12-19T00:44:55;13.10;99.90
61004;DHT22;46889;37.310;13.582;2022-12-19T00:47:23;13.20;99.90
61004;DHT22;46889;37.310;13.582;2022-12-19T00:49:52;13.10;99.90
61004;DHT22;46889;37.310;13.582;2022-12-19T00:52:18;13.10;99.90
61004;DHT22;46889;37.310;13.582;2022-12-19T00:54:45;13.10;99.90
61004;DHT22;46889;37.310;13.582;2022-12-19T00:57:11;13.00;99.90
61004;DHT22;46889;37.310;13.582;2022-12-19T00:59:45;13.00;99.90
61004;DHT22;46889;37.310;13.582;2022-12-19T01:02:11;13.00;99.90
61004;DHT22;46889;37.310;13.582;2022-12-19T01:04:43;12.90;99.90
61004;DHT22;46889;37.310;13.582;2022-12-19T01:07:09;12.90;99.90
61004;DHT22;46889;37.310;13.582;2022-12-19T01:09:38;12.90;99.90
61004;DHT22;46889;37.310;13.582;2022-12-19T01:12:09;12.90;99.90
61004;DHT22;46889;37.310;13.582;2022-12-19T01:14:55;12.90;99.90
61004;DHT22;46889;37.310;13.582;2022-12-19T01:17:23;12.80;99.90
61004;DHT22;46889;37.310;13.582;2022-12-19T01:19:49;12.70;99.90
61004;DHT22;46889;37.310;13.582;2022-12-19T01:22:15;12.70;99.90
61004;DHT22;46889;37.310;13.582;2022-12-19T01:24:51;12.70;99.90
61004;DHT22;46889;37.310;13.582;2022-12-19T01:27:17;12.60;99.90
61004;DHT22;46889;37.310;13.582;2022-12-19T01:29:43;12.60;99.90
61004;DHT22;46889;37.310;13.582;2022-12-19T01:32:09;12.50;99.90
61004;DHT22;46889;37.310;13.582;2022-12-19T01:34:36;12.60;99.90
61004;DHT22;46889;37.310;13.582;2022-12-19T01:37:02;12.60;99.90
61004;DHT22;46889;37.310;13.582;2022-12-19T01:39:29;12.60;99.90
61004;DHT22;46889;37.310;13.582;2022-12-19T01:41:56;12.70;99.90
61004;DHT22;46889;37.310;13.582;2022-12-19T01:44:25;12.70;99.90
61004;DHT22;46889;37.310;13.582;2022-12-19T01:46:55;12.80;99.90
61004;DHT22;46889;37.310;13.582;2022-12-19T01:49:29;12.80;99.90
61004;DHT22;46889;37.310;13.582;2022-12-19T01:52:15;12.80;99.90
61004;DHT22;46889;37.310;13.582;2022-12-19T01:54:42;12.80;99.90
61004;DHT22;46889;37.310;13.582;2022-12-19T01:57:13;12.80;99.90
61004;DHT22;46889;37.310;13.582;2022-12-19T01:59:43;12.80;99.90
61004;DHT22;46889;37.310;13.582;2022-12-19T02:05:11;12.70;99.90
61004;DHT22;46889;37.310;13.582;2022-12-19T02:07:38;12.70;99.90
61004;DHT22;46889;37.310;13.582;2022-12-19T02:10:06;12.70;99.90
61004;DHT22;46889;37.310;13.582;2022-12-19T02:12:40;12.70;99.90
61004;DHT22;46889;37.310;13.582;2022-12-19T02:15:08;12.60;99.90
61004;DHT22;46889;37.310;13.582;2022-12-19T02:17:37;12.60;99.90
61004;DHT22;46889;37.310;13.582;2022-12-19T02:23:45;12.60;99.90
61004;DHT22;46889;37.310;13.582;2022-12-19T02:26:56;12.60;99.90
61004;DHT22;46889;37.310;13.582;2022-12-19T02:32:17;12.60;99.90
61004;DHT22;46889;37.310;13.582;2022-12-19T02:35:04;12.70;99.90
61004;DHT22;46889;37.310;13.582;2022-12-19T02:37:37;12.70;99.90
61004;DHT22;46889;37.310;13.582;2022-12-19T02:40:21;12.70;99.90
61004;DHT22;46889;37.310;13.582;2022-12-19T02:43:00;12.70;99.90
61004;DHT22;46889;37.310;13.582;2022-12-19T02:45:34;12.70;99.90
61004;DHT22;46889;37.310;13.582;2022-12-19T02:48:02;12.70;99.90
61004;DHT22;46889;37.310;13.582;2022-12-19T02:50:45;12.70;99.90
61004;DHT22;46889;37.310;13.582;2022-12-19T02:53:14;12.80;99.90
61004;DHT22;46889;37.310;13.582;2022-12-19T02:56:03;12.80;99.90
61004;DHT22;46889;37.310;13.582;2022-12-19T03:01:58;12.90;99.90
61004;DHT22;46889;37.310;13.582;2022-12-19T03:04:51;12.90;99.90
61004;DHT22;46889;37.310;13.582;2022-12-19T03:07:54;12.80;99.90
61004;DHT22;46889;37.310;13.582;2022-12-19T03:10:40;12.90;99.90
61004;DHT22;46889;37.310;13.582;2022-12-19T03:13:30;12.90;99.90
61004;DHT22;46889;37.310;13.582;2022-12-19T03:16:08;12.90;99.90
61004;DHT22;46889;37.310;13.582;2022-12-19T03:18:36;12.80;99.90
61004;DHT22;46889;37.310;13.582;2022-12-19T03:23:33;12.80;99.90
61004;DHT22;46889;37.310;13.582;2022-12-19T03:26:06;12.80;99.90
61004;DHT22;46889;37.310;13.582;2022-12-19T03:29:04;12.70;99.90
61004;DHT22;46889;37.310;13.582;2022-12-19T03:31:37;12.70;99.90
61004;DHT22;46889;37.310;13.582;2022-12-19T03:34:28;12.70;99.90
61004;DHT22;46889;37.310;13.582;2022-12-19T03:37:02;12.70;99.90
61004;DHT22;46889;37.310;13.582;2022-12-19T03:39:30;12.70;99.90
61004;DHT22;46889;37.310;13.582;2022-12-19T03:41:59;12.80;99.90
61004;DHT22;46889;37.310;13.582;2022-12-19T03:44:44;12.70;99.90
61004;DHT22;46889;37.310;13.582;2022-12-19T03:47:27;12.70;99.90
61004;DHT22;46889;37.310;13.582;2022-12-19T03:49:55;12.80;99.90
61004;DHT22;46889;37.310;13.582;2022-12-19T03:52:37;12.80;99.90
61004;DHT22;46889;37.310;13.582;2022-12-19T03:55:15;12.70;99.90
61004;DHT22;46889;37.310;13.582;2022-12-19T03:57:51;12.70;99.90
61004;DHT22;46889;37.310;13.582;2022-12-19T04:00:20;12.70;99.90
61004;DHT22;46889;37.310;13.582;2022-12-19T04:02:49;12.70;99.90
61004;DHT22;46889;37.310;13.582;2022-12-19T04:05:20;12.80;99.90
61004;DHT22;46889;37.310;13.582;2022-12-19T04:07:48;12.80;99.90
61004;DHT22;46889;37.310;13.582;2022-12-19T04:10:17;12.70;99.90
61004;DHT22;46889;37.310;13.582;2022-12-19T04:12:49;12.70;99.90
61004;DHT22;46889;37.310;13.582;2022-12-19T04:15:20;12.70;99.90
61004;DHT22;46889;37.310;13.582;2022-12-19T04:17:57;12.60;99.90
61004;DHT22;46889;37.310;13.582;2022-12-19T04:20:25;12.70;99.90
61004;DHT22;46889;37.310;13.582;2022-12-19T04:22:59;12.70;99.90
61004;DHT22;46889;37.310;13.582;2022-12-19T04:25:35;12.70;99.90
61004;DHT22;46889;37.310;13.582;2022-12-19T04:29:04;12.70;99.90
61004;DHT22;46889;37.310;13.582;2022-12-19T04:31:06;12.70;99.90
61004;DHT22;46889;37.310;13.582;2022-12-19T04:33:34;12.70;99.90
61004;DHT22;46889;37.310;13.582;2022-12-19T04:36:00;12.70;99.90
61004;DHT22;46889;37.310;13.582;2022-12-19T04:38:36;12.70;99.90
61004;DHT22;46889;37.310;13.582;2022-12-19T04:41:03;12.70;99.90
61004;DHT22;46889;37.310;13.582;2022-12-19T04:43:29;12.70;99.90
61004;DHT22;46889;37.310;13.582;2022-12-19T04:45:55;12.70;99.90
61004;DHT22;46889;37.310;13.582;2022-12-19T04:48:21;12.70;99.90
61004;DHT22;46889;37.310;13.582;2022-12-19T04:50:47;12.70;99.90
61004;DHT22;46889;37.310;13.582;2022-12-19T04:53:15;12.70;99.90
61004;DHT22;46889;37.310;13.582;2022-12-19T04:55:42;12.60;99.90
61004;DHT22;46889;37.310;13.582;2022-12-19T04:58:09;12.60;99.90
61004;DHT22;46889;37.310;13.582;2022-12-19T05:00:35;12.60;99.90
61004;DHT22;46889;37.310;13.582;2022-12-19T05:03:01;12.50;99.90
61004;DHT22;46889;37.310;13.582;2022-12-19T05:05:27;12.60;99.90
61004;DHT22;46889;37.310;13.582;2022-12-19T05:07:54;12.60;99.90
61004;DHT22;46889;37.310;13.582;2022-12-19T05:10:20;12.50;99.90
61004;DHT22;46889;37.310;13.582;2022-12-19T05:12:47;12.50;99.90
61004;DHT22;46889;37.310;13.582;2022-12-19T05:15:13;12.50;99.90
61004;DHT22;46889;37.310;13.582;2022-12-19T05:17:39;12.50;99.90
61004;DHT22;46889;37.310;13.582;2022-12-19T05:20:08;12.50;99.90
61004;DHT22;46889;37.310;13.582;2022-12-19T05:22:34;12.50;99.90
61004;DHT22;46889;37.310;13.582;2022-12-19T05:25:00;12.50;99.90
61004;DHT22;46889;37.310;13.582;2022-12-19T05:27:27;12.50;99.90
61004;DHT22;46889;37.310;13.582;2022-12-19T05:29:53;12.30;99.90
61004;DHT22;46889;37.310;13.582;2022-12-19T05:32:24;12.30;99.90
61004;DHT22;46889;37.310;13.582;2022-12-19T05:34:50;12.20;99.90
61004;DHT22;46889;37.310;13.582;2022-12-19T05:37:16;12.10;99.90
61004;DHT22;46889;37.310;13.582;2022-12-19T05:39:42;12.10;99.90
61004;DHT22;46889;37.310;13.582;2022-12-19T05:42:08;12.10;99.90
61004;DHT22;46889;37.310;13.582;2022-12-19T05:44:34;12.10;99.90
61004;DHT22;46889;37.310;13.582;2022-12-19T05:47:00;12.00;99.90
61004;DHT22;46889;37.310;13.582;2022-12-19T05:49:29;12.00;99.90
61004;DHT22;46889;37.310;13.582;2022-12-19T05:51:58;12.00;99.90
61004;DHT22;46889;37.310;13.582;2022-12-19T05:54:27;12.00;99.90
61004;DHT22;46889;37.310;13.582;2022-12-19T05:57:09;12.00;99.90
61004;DHT22;46889;37.310;13.582;2022-12-19T05:59:39;12.00;99.90
61004;DHT22;46889;37.310;13.582;2022-12-19T06:02:06;12.00;99.90
61004;DHT22;46889;37.310;13.582;2022-12-19T06:04:31;12.00;99.90
61004;DHT22;46889;37.310;13.582;2022-12-19T06:06:59;12.10;99.90
61004;DHT22;46889;37.310;13.582;2022-12-19T06:09:44;12.10;99.90
61004;DHT22;46889;37.310;13.582;2022-12-19T06:12:12;12.10;99.90
61004;DHT22;46889;37.310;13.582;2022-12-19T06:14:38;12.20;99.90
61004;DHT22;46889;37.310;13.582;2022-12-19T06:17:04;12.20;99.90
61004;DHT22;46889;37.310;13.582;2022-12-19T06:19:30;12.20;99.90
61004;DHT22;46889;37.310;13.582;2022-12-19T06:21:56;12.30;99.90
61004;DHT22;46889;37.310;13.582;2022-12-19T06:24:24;12.30;99.90
61004;DHT22;46889;37.310;13.582;2022-12-19T06:26:52;12.30;99.90
61004;DHT22;46889;37.310;13.582;2022-12-19T06:29:19;12.40;99.90
61004;DHT22;46889;37.310;13.582;2022-12-19T06:31:45;12.40;99.90
61004;DHT22;46889;37.310;13.582;2022-12-19T06:34:16;12.50;99.90
61004;DHT22;46889;37.310;13.582;2022-12-19T06:36:44;12.60;99.90
61004;DHT22;46889;37.310;13.582;2022-12-19T06:39:16;12.70;99.90
61004;DHT22;46889;37.310;13.582;2022-12-19T06:41:42;12.80;99.90
61004;DHT22;46889;37.310;13.582;2022-12-19T06:44:30;13.00;99.90
61004;DHT22;46889;37.310;13.582;2022-12-19T06:46:57;13.50;99.90
61004;DHT22;46889;37.310;13.582;2022-12-19T06:49:35;13.80;99.90
61004;DHT22;46889;37.310;13.582;2022-12-19T06:52:09;14.10;99.90
61004;DHT22;46889;37.310;13.582;2022-12-19T06:54:35;14.20;99.90
61004;DHT22;46889;37.310;13.582;2022-12-19T06:57:04;14.50;99.90
61004;DHT22;46889;37.310;13.582;2022-12-19T06:59:31;14.70;99.90
61004;DHT22;46889;37.310;13.582;2022-12-19T07:02:20;15.00;99.90
61004;DHT22;46889;37.310;13.582;2022-12-19T07:04:56;14.90;99.90
61004;DHT22;46889;37.310;13.582;2022-12-19T07:07:43;15.00;99.90
61004;DHT22;46889;37.310;13.582;2022-12-19T07:10:10;15.30;99.90
61004;DHT22;46889;37.310;13.582;2022-12-19T07:12:37;15.50;99.90
61004;DHT22;46889;37.310;13.582;2022-12-19T07:15:03;15.20;99.90
61004;DHT22;46889;37.310;13.582;2022-12-19T07:17:34;15.30;99.90
61004;DHT22;46889;37.310;13.582;2022-12-19T07:20:08;15.20;99.90
61004;DHT22;46889;37.310;13.582;2022-12-19T07:22:38;15.40;99.90
61004;DHT22;46889;37.310;13.582;2022-12-19T07:25:15;15.50;99.90
61004;DHT22;46889;37.310;13.582;2022-12-19T07:27:43;15.30;99.90
61004;DHT22;46889;37.310;13.582;2022-12-19T07:30:11;15.30;99.90
61004;DHT22;46889;37.310;13.582;2022-12-19T07:32:37;15.10;99.90
61004;DHT22;46889;37.310;13.582;2022-12-19T07:35:08;14.90;99.90
61004;DHT22;46889;37.310;13.582;2022-12-19T07:37:34;15.00;99.90
61004;DHT22;46889;37.310;13.582;2022-12-19T07:40:00;15.00;99.90
61004;DHT22;46889;37.310;13.582;2022-12-19T07:42:27;15.00;99.90
61004;DHT22;46889;37.310;13.582;2022-12-19T07:44:53;15.00;99.90
61004;DHT22;46889;37.310;13.582;2022-12-19T07:47:19;15.00;99.90
61004;DHT22;46889;37.310;13.582;2022-12-19T07:49:45;14.90;99.90
61004;DHT22;46889;37.310;13.582;2022-12-19T07:52:11;14.80;99.90
61004;DHT22;46889;37.310;13.582;2022-12-19T07:54:37;14.80;99.90
61004;DHT22;46889;37.310;13.582;2022-12-19T07:57:03;14.80;99.90
61004;DHT22;46889;37.310;13.582;2022-12-19T07:59:30;15.20;99.90
61004;DHT22;46889;37.310;13.582;2022-12-19T08:02:02;15.50;99.90
61004;DHT22;46889;37.310;13.582;2022-12-19T08:13:23;15.50;99.90
61004;DHT22;46889;37.310;13.582;2022-12-19T08:15:59;15.50;99.90
61004;DHT22;46889;37.310;13.582;2022-12-19T08:18:26;15.40;99.90
61004;DHT22;46889;37.310;13.582;2022-12-19T08:20:52;15.30;99.90
61004;DHT22;46889;37.310;13.582;2022-12-19T08:23:23;15.10;99.90
61004;DHT22;46889;37.310;13.582;2022-12-19T08:26:05;15.30;99.90
61004;DHT22;46889;37.310;13.582;2022-12-19T08:28:34;15.60;99.90
61004;DHT22;46889;37.310;13.582;2022-12-19T08:31:08;15.80;99.90
61004;DHT22;46889;37.310;13.582;2022-12-19T08:33:36;16.00;99.90
61004;DHT22;46889;37.310;13.582;2022-12-19T08:36:06;15.90;99.90
61004;DHT22;46889;37.310;13.582;2022-12-19T08:38:34;15.80;99.90
61004;DHT22;46889;37.310;13.582;2022-12-19T08:41:02;16.00;99.90
61004;DHT22;46889;37.310;13.582;2022-12-19T08:43:29;16.20;99.90
61004;DHT22;46889;37.310;13.582;2022-12-19T08:45:55;16.20;99.90
61004;DHT22;46889;37.310;13.582;2022-12-19T08:48:21;16.40;99.90
61004;DHT22;46889;37.310;13.582;2022-12-19T08:50:50;16.40;99.90
61004;DHT22;46889;37.310;13.582;2022-12-19T08:53:16;16.60;99.90
61004;DHT22;46889;37.310;13.582;2022-12-19T08:55:42;16.60;99.90
61004;DHT22;46889;37.310;13.582;2022-12-19T08:58:09;16.70;99.90
61004;DHT22;46889;37.310;13.582;2022-12-19T09:00:39;16.60;99.90
61004;DHT22;46889;37.310;13.582;2022-12-19T09:03:06;16.70;99.90
61004;DHT22;46889;37.310;13.582;2022-12-19T09:05:33;16.70;99.90
61004;DHT22;46889;37.310;13.582;2022-12-19T09:07:59;16.80;99.90
61004;DHT22;46889;37.310;13.582;2022-12-19T09:10:26;16.80;99.90
61004;DHT22;46889;37.310;13.582;2022-12-19T09:12:53;16.70;99.90
61004;DHT22;46889;37.310;13.582;2022-12-19T09:15:21;16.90;99.90
61004;DHT22;46889;37.310;13.582;2022-12-19T09:17:47;17.00;99.90
61004;DHT22;46889;37.310;13.582;2022-12-19T09:20:14;17.10;99.90
61004;DHT22;46889;37.310;13.582;2022-12-19T09:22:41;17.00;99.90
61004;DHT22;46889;37.310;13.582;2022-12-19T09:25:08;17.00;99.90
61004;DHT22;46889;37.310;13.582;2022-12-19T09:27:34;17.10;99.90
61004;DHT22;46889;37.310;13.582;2022-12-19T09:30:00;17.10;99.90
61004;DHT22;46889;37.310;13.582;2022-12-19T09:32:26;17.10;99.90
61004;DHT22;46889;37.310;13.582;2022-12-19T09:34:52;17.10;99.90
61004;DHT22;46889;37.310;13.582;2022-12-19T09:37:18;17.20;99.90
61004;DHT22;46889;37.310;13.582;2022-12-19T09:39:45;17.30;99.90
61004;DHT22;46889;37.310;13.582;2022-12-19T09:47:47;17.50;99.90
61004;DHT22;46889;37.310;13.582;2022-12-19T09:50:29;17.50;99.90
61004;DHT22;46889;37.310;13.582;2022-12-19T09:53:02;17.60;99.90
61004;DHT22;46889;37.310;13.582;2022-12-19T09:55:35;17.60;99.90
61004;DHT22;46889;37.310;13.582;2022-12-19T09:58:11;17.90;99.90
61004;DHT22;46889;37.310;13.582;2022-12-19T10:00:49;18.00;99.90
61004;DHT22;46889;37.310;13.582;2022-12-19T10:03:37;18.00;99.90
61004;DHT22;46889;37.310;13.582;2022-12-19T10:06:21;18.00;99.90
61004;DHT22;46889;37.310;13.582;2022-12-19T10:08:49;18.10;99.90
61004;DHT22;46889;37.310;13.582;2022-12-19T10:19:23;18.40;99.90
61004;DHT22;46889;37.310;13.582;2022-12-19T10:22:11;18.50;99.90
61004;DHT22;46889;37.310;13.582;2022-12-19T10:25:09;18.80;99.90
61004;DHT22;46889;37.310;13.582;2022-12-19T10:28:00;19.00;99.90
61004;DHT22;46889;37.310;13.582;2022-12-19T10:30:35;19.00;99.90
61004;DHT22;46889;37.310;13.582;2022-12-19T10:33:45;19.30;99.90
61004;DHT22;46889;37.310;13.582;2022-12-19T10:36:12;19.30;99.90
61004;DHT22;46889;37.310;13.582;2022-12-19T10:38:56;19.40;99.90
61004;DHT22;46889;37.310;13.582;2022-12-19T10:41:26;19.30;99.90
61004;DHT22;46889;37.310;13.582;2022-12-19T10:43:57;19.50;99.90
61004;DHT22;46889;37.310;13.582;2022-12-19T10:46:40;19.60;99.90
61004;DHT22;46889;37.310;13.582;2022-12-19T10:49:18;19.40;99.90
61004;DHT22;46889;37.310;13.582;2022-12-19T10:52:09;19.30;99.90
61004;DHT22;46889;37.310;13.582;2022-12-19T10:57:25;19.80;99.90
61004;DHT22;46889;37.310;13.582;2022-12-19T11:00:14;20.00;99.90
61004;DHT22;46889;37.310;13.582;2022-12-19T11:02:45;20.30;99.90
61004;DHT22;46889;37.310;13.582;2022-12-19T11:05:30;20.50;99.90
61004;DHT22;46889;37.310;13.582;2022-12-19T11:13:40;20.20;99.90
61004;DHT22;46889;37.310;13.582;2022-12-19T11:16:07;20.40;99.90
61004;DHT22;46889;37.310;13.582;2022-12-19T11:19:05;20.50;99.90
61004;DHT22;46889;37.310;13.582;2022-12-19T11:21:51;20.40;99.90
61004;DHT22;46889;37.310;13.582;2022-12-19T11:24:40;20.40;99.90
61004;DHT22;46889;37.310;13.582;2022-12-19T11:27:30;20.70;99.90
61004;DHT22;46889;37.310;13.582;2022-12-19T11:29:58;20.80;99.90
61004;DHT22;46889;37.310;13.582;2022-12-19T11:32:35;20.90;99.90
61004;DHT22;46889;37.310;13.582;2022-12-19T11:35:13;20.90;99.90
61004;DHT22;46889;37.310;13.582;2022-12-19T11:40:47;20.80;99.90
61004;DHT22;46889;37.310;13.582;2022-12-19T11:46:10;20.80;99.90
61004;DHT22;46889;37.310;13.582;2022-12-19T11:52:04;21.10;99.90
61004;DHT22;46889;37.310;13.582;2022-12-19T11:54:50;20.90;99.90
61004;DHT22;46889;37.310;13.582;2022-12-19T11:57:19;20.70;99.90
61004;DHT22;46889;37.310;13.582;2022-12-19T11:59:46;20.60;99.90
61004;DHT22;46889;37.310;13.582;2022-12-19T12:02:39;20.60;99.90
61004;DHT22;46889;37.310;13.582;2022-12-19T12:11:22;20.90;99.90
61004;DHT22;46889;37.310;13.582;2022-12-19T12:13:56;20.90;99.90
61004;DHT22;46889;37.310;13.582;2022-12-19T12:32:59;19.90;99.90
61004;DHT22;46889;37.310;13.582;2022-12-19T12:35:49;19.90;99.90
61004;DHT22;46889;37.310;13.582;2022-12-19T12:38:40;19.90;99.90
61004;DHT22;46889;37.310;13.582;2022-12-19T12:41:53;19.90;99.90
61004;DHT22;46889;37.310;13.582;2022-12-19T12:44:17;19.70;99.90
61004;DHT22;46889;37.310;13.582;2022-12-19T12:49:37;19.80;99.90
61004;DHT22;46889;37.310;13.582;2022-12-19T12:52:08;19.70;99.90
61004;DHT22;46889;37.310;13.582;2022-12-19T12:54:40;19.80;99.90
61004;DHT22;46889;37.310;13.582;2022-12-19T12:57:18;19.70;99.90
61004;DHT22;46889;37.310;13.582;2022-12-19T12:59:46;19.80;99.90
61004;DHT22;46889;37.310;13.582;2022-12-19T13:02:17;19.80;99.90
61004;DHT22;46889;37.310;13.582;2022-12-19T13:04:58;19.70;99.90
61004;DHT22;46889;37.310;13.582;2022-12-19T13:07:50;19.80;99.90
61004;DHT22;46889;37.310;13.582;2022-12-19T13:10:36;20.00;99.90
61004;DHT22;46889;37.310;13.582;2022-12-19T13:13:07;20.30;99.90
61004;DHT22;46889;37.310;13.582;2022-12-19T13:15:42;20.40;99.90
61004;DHT22;46889;37.310;13.582;2022-12-19T13:20:54;20.10;99.90
61004;DHT22;46889;37.310;13.582;2022-12-19T13:25:55;20.00;99.90
61004;DHT22;46889;37.310;13.582;2022-12-19T13:34:15;19.70;99.90
61004;DHT22;46889;37.310;13.582;2022-12-19T13:39:36;19.80;99.90
61004;DHT22;46889;37.310;13.582;2022-12-19T13:42:12;19.60;99.90
61004;DHT22;46889;37.310;13.582;2022-12-19T13:45:28;19.80;99.90
61004;DHT22;46889;37.310;13.582;2022-12-19T13:47:58;19.80;99.90
61004;DHT22;46889;37.310;13.582;2022-12-19T13:50:51;19.90;99.90
61004;DHT22;46889;37.310;13.582;2022-12-19T13:53:27;20.20;99.90
61004;DHT22;46889;37.310;13.582;2022-12-19T13:56:02;20.40;99.90
61004;DHT22;46889;37.310;13.582;2022-12-19T13:58:45;20.30;99.90
61004;DHT22;46889;37.310;13.582;2022-12-19T14:01:27;20.40;99.90
61004;DHT22;46889;37.310;13.582;2022-12-19T14:04:06;20.40;99.90
61004;DHT22;46889;37.310;13.582;2022-12-19T14:06:45;20.20;99.90
61004;DHT22;46889;37.310;13.582;2022-12-19T14:09:34;20.30;99.90
61004;DHT22;46889;37.310;13.582;2022-12-19T14:12:04;20.20;99.90
61004;DHT22;46889;37.310;13.582;2022-12-19T14:14:32;20.00;99.90
61004;DHT22;46889;37.310;13.582;2022-12-19T14:17:20;19.90;99.90
61004;DHT22;46889;37.310;13.582;2022-12-19T14:19:50;20.10;99.90
61004;DHT22;46889;37.310;13.582;2022-12-19T14:24:59;20.20;99.90
61004;DHT22;46889;37.310;13.582;2022-12-19T14:27:50;20.20;99.90
61004;DHT22;46889;37.310;13.582;2022-12-19T14:30:23;20.20;99.90
61004;DHT22;46889;37.310;13.582;2022-12-19T14:33:04;20.20;99.90
61004;DHT22;46889;37.310;13.582;2022-12-19T14:35:41;20.10;99.90
61004;DHT22;46889;37.310;13.582;2022-12-19T14:38:15;19.90;99.90
61004;DHT22;46889;37.310;13.582;2022-12-19T14:40:42;20.10;99.90
61004;DHT22;46889;37.310;13.582;2022-12-19T14:43:15;19.90;99.90
61004;DHT22;46889;37.310;13.582;2022-12-19T14:48:58;19.70;99.90
61004;DHT22;46889;37.310;13.582;2022-12-19T14:51:27;19.60;99.90
61004;DHT22;46889;37.310;13.582;2022-12-19T14:56:59;19.40;99.90
61004;DHT22;46889;37.310;13.582;2022-12-19T14:59:43;19.40;99.90
61004;DHT22;46889;37.310;13.582;2022-12-19T15:02:27;19.40;99.90
61004;DHT22;46889;37.310;13.582;2022-12-19T15:05:11;19.30;99.90
61004;DHT22;46889;37.310;13.582;2022-12-19T15:07:43;19.30;99.90
61004;DHT22;46889;37.310;13.582;2022-12-19T15:10:21;19.20;99.90
61004;DHT22;46889;37.310;13.582;2022-12-19T15:12:57;19.20;99.90
61004;DHT22;46889;37.310;13.582;2022-12-19T15:15:55;19.20;99.90
61004;DHT22;46889;37.310;13.582;2022-12-19T15:18:39;19.00;99.90
61004;DHT22;46889;37.310;13.582;2022-12-19T15:21:12;19.00;99.90
61004;DHT22;46889;37.310;13.582;2022-12-19T15:23:42;18.80;99.90
61004;DHT22;46889;37.310;13.582;2022-12-19T15:26:45;18.60;99.90
61004;DHT22;46889;37.310;13.582;2022-12-19T15:29:12;18.60;99.90
61004;DHT22;46889;37.310;13.582;2022-12-19T15:31:43;18.50;99.90
61004;DHT22;46889;37.310;13.582;2022-12-19T15:36:45;18.30;99.90
61004;DHT22;46889;37.310;13.582;2022-12-19T15:41:51;18.10;99.90
61004;DHT22;46889;37.310;13.582;2022-12-19T15:47:01;17.80;99.90
61004;DHT22;46889;37.310;13.582;2022-12-19T15:49:29;17.60;99.90
61004;DHT22;46889;37.310;13.582;2022-12-19T15:52:01;17.60;99.90
61004;DHT22;46889;37.310;13.582;2022-12-19T15:54:38;17.50;99.90
61004;DHT22;46889;37.310;13.582;2022-12-19T15:57:34;17.40;99.90
61004;DHT22;46889;37.310;13.582;2022-12-19T16:00:06;17.30;99.90
61004;DHT22;46889;37.310;13.582;2022-12-19T16:02:36;17.30;99.90
61004;DHT22;46889;37.310;13.582;2022-12-19T16:05:03;17.20;99.90
61004;DHT22;46889;37.310;13.582;2022-12-19T16:07:30;17.20;99.90
61004;DHT22;46889;37.310;13.582;2022-12-19T16:09:57;17.10;99.90
61004;DHT22;46889;37.310;13.582;2022-12-19T16:12:30;17.00;99.90
61004;DHT22;46889;37.310;13.582;2022-12-19T16:15:00;16.90;99.90
61004;DHT22;46889;37.310;13.582;2022-12-19T16:17:31;16.90;99.90
61004;DHT22;46889;37.310;13.582;2022-12-19T16:19:59;16.80;99.90
61004;DHT22;46889;37.310;13.582;2022-12-19T16:22:27;16.70;99.90
61004;DHT22;46889;37.310;13.582;2022-12-19T16:25:00;16.70;99.90
61004;DHT22;46889;37.310;13.582;2022-12-19T16:27:30;16.60;99.90
61004;DHT22;46889;37.310;13.582;2022-12-19T16:30:09;16.60;99.90
61004;DHT22;46889;37.310;13.582;2022-12-19T16:32:40;16.60;99.90
61004;DHT22;46889;37.310;13.582;2022-12-19T16:35:19;16.50;99.90
61004;DHT22;46889;37.310;13.582;2022-12-19T16:37:51;16.50;99.90
61004;DHT22;46889;37.310;13.582;2022-12-19T16:40:23;16.40;99.90
61004;DHT22;46889;37.310;13.582;2022-12-19T16:43:02;16.30;99.90
61004;DHT22;46889;37.310;13.582;2022-12-19T16:45:31;16.20;99.90
61004;DHT22;46889;37.310;13.582;2022-12-19T16:47:58;16.00;99.90
61004;DHT22;46889;37.310;13.582;2022-12-19T16:50:27;15.90;99.90
61004;DHT22;46889;37.310;13.582;2022-12-19T16:52:55;16.00;99.90
61004;DHT22;46889;37.310;13.582;2022-12-19T16:55:24;15.90;99.90
61004;DHT22;46889;37.310;13.582;2022-12-19T16:57:53;15.90;99.90
61004;DHT22;46889;37.310;13.582;2022-12-19T17:00:22;15.80;99.90
61004;DHT22;46889;37.310;13.582;2022-12-19T17:03:31;15.90;99.90
61004;DHT22;46889;37.310;13.582;2022-12-19T17:05:56;15.90;99.90
61004;DHT22;46889;37.310;13.582;2022-12-19T17:08:23;15.80;99.90
61004;DHT22;46889;37.310;13.582;2022-12-19T17:10:49;15.70;99.90
61004;DHT22;46889;37.310;13.582;2022-12-19T17:13:17;15.60;99.90
61004;DHT22;46889;37.310;13.582;2022-12-19T17:15:50;15.50;99.90
61004;DHT22;46889;37.310;13.582;2022-12-19T17:18:28;15.50;99.90
61004;DHT22;46889;37.310;13.582;2022-12-19T17:20:57;15.40;99.90
61004;DHT22;46889;37.310;13.582;2022-12-19T17:23:25;15.40;99.90
61004;DHT22;46889;37.310;13.582;2022-12-19T17:25:57;15.50;99.90
61004;DHT22;46889;37.310;13.582;2022-12-19T17:28:26;15.40;99.90
61004;DHT22;46889;37.310;13.582;2022-12-19T17:30:55;15.40;99.90
61004;DHT22;46889;37.310;13.582;2022-12-19T17:33:35;15.30;99.90
61004;DHT22;46889;37.310;13.582;2022-12-19T17:36:05;15.30;99.90
61004;DHT22;46889;37.310;13.582;2022-12-19T17:38:32;15.20;99.90
61004;DHT22;46889;37.310;13.582;2022-12-19T17:40:58;15.20;99.90